LROP/OTP METAR and TAF weather

Enter ICAO airport designator
Station Type Date Time Source
LROP METAR 2022/09/28 19:30 UTC NOAA

LROP 281930Z 00000KT CAVOK 17/13 Q1005 NOSIG


Station Type Date Time Source
LROP Decoded METAR 2022/09/28 19:30 UTC NOAA

Bucuresti Otopeni, Romania (LROP) 44-33N 026-06E 95M
Sep 28, 2022 - 03:30 PM EDT / 2022.09.28 1930 UTC
Wind: Calm:0
Visibility: greater than 7 mile(s):0
Temperature: 62 F (17 C)
Dew Point: 55 F (13 C)
Relative Humidity: 77%
Pressure (altimeter): 29.68 in. Hg (1005 hPa)
ob: LROP 281930Z 00000KT CAVOK 17/13 Q1005 NOSIG
cycle: 19

Station Type Date Time Source
LROP TAF 2022/09/28 18:37 UTC NOAA

TAF LROP 281700Z 2818/2918 VRB04KT CAVOK

Example: see airport list